sensor_id;sensor_type;location;lat;lon;timestamp;P1;durP1;ratioP1;P2;durP2;ratioP2
46284;SDS011;32018;59.182;18.148;2023-06-24T00:02:22;0.77;;;0.77;;
46284;SDS011;32018;59.182;18.148;2023-06-24T00:04:49;1.10;;;1.00;;
46284;SDS011;32018;59.182;18.148;2023-06-24T00:07:14;0.80;;;0.80;;
46284;SDS011;32018;59.182;18.148;2023-06-24T00:09:39;0.90;;;0.90;;
46284;SDS011;32018;59.182;18.148;2023-06-24T00:12:05;0.87;;;0.87;;
46284;SDS011;32018;59.182;18.148;2023-06-24T00:14:30;1.17;;;1.10;;
46284;SDS011;32018;59.182;18.148;2023-06-24T00:16:55;0.97;;;0.97;;
46284;SDS011;32018;59.182;18.148;2023-06-24T00:19:24;0.70;;;0.70;;
46284;SDS011;32018;59.182;18.148;2023-06-24T00:21:51;0.85;;;0.85;;
46284;SDS011;32018;59.182;18.148;2023-06-24T00:24:20;0.93;;;0.93;;
46284;SDS011;32018;59.182;18.148;2023-06-24T00:26:46;0.80;;;0.80;;
46284;SDS011;32018;59.182;18.148;2023-06-24T00:29:12;1.00;;;1.00;;
46284;SDS011;32018;59.182;18.148;2023-06-24T00:31:37;1.30;;;1.20;;
46284;SDS011;32018;59.182;18.148;2023-06-24T00:34:02;0.80;;;0.80;;
46284;SDS011;32018;59.182;18.148;2023-06-24T00:36:28;1.00;;;1.00;;
46284;SDS011;32018;59.182;18.148;2023-06-24T00:38:53;0.80;;;0.80;;
46284;SDS011;32018;59.182;18.148;2023-06-24T00:41:18;0.83;;;0.83;;
46284;SDS011;32018;59.182;18.148;2023-06-24T00:43:44;0.82;;;0.82;;
46284;SDS011;32018;59.182;18.148;2023-06-24T00:46:09;0.80;;;0.80;;
46284;SDS011;32018;59.182;18.148;2023-06-24T00:48:35;1.00;;;1.00;;
46284;SDS011;32018;59.182;18.148;2023-06-24T00:51:00;1.20;;;1.10;;
46284;SDS011;32018;59.182;18.148;2023-06-24T00:53:25;1.00;;;1.00;;
46284;SDS011;32018;59.182;18.148;2023-06-24T00:55:51;0.90;;;0.90;;
46284;SDS011;32018;59.182;18.148;2023-06-24T00:58:17;0.80;;;0.80;;
46284;SDS011;32018;59.182;18.148;2023-06-24T01:00:46;0.82;;;0.82;;
46284;SDS011;32018;59.182;18.148;2023-06-24T01:03:12;1.08;;;1.05;;
46284;SDS011;32018;59.182;18.148;2023-06-24T01:05:41;1.15;;;1.05;;
46284;SDS011;32018;59.182;18.148;2023-06-24T01:08:07;1.10;;;1.00;;
46284;SDS011;32018;59.182;18.148;2023-06-24T01:10:32;1.10;;;1.00;;
46284;SDS011;32018;59.182;18.148;2023-06-24T01:12:57;1.00;;;1.00;;
46284;SDS011;32018;59.182;18.148;2023-06-24T01:15:22;1.27;;;1.17;;
46284;SDS011;32018;59.182;18.148;2023-06-24T01:28:03;1.10;;;1.00;;
46284;SDS011;32018;59.182;18.148;2023-06-24T01:30:35;0.90;;;0.88;;
46284;SDS011;32018;59.182;18.148;2023-06-24T01:33:07;1.10;;;1.00;;
46284;SDS011;32018;59.182;18.148;2023-06-24T01:35:33;1.05;;;1.00;;
46284;SDS011;32018;59.182;18.148;2023-06-24T01:38:01;1.30;;;1.20;;
46284;SDS011;32018;59.182;18.148;2023-06-24T01:40:30;1.10;;;1.00;;
46284;SDS011;32018;59.182;18.148;2023-06-24T01:42:57;1.20;;;1.10;;
46284;SDS011;32018;59.182;18.148;2023-06-24T01:45:23;1.00;;;1.00;;
46284;SDS011;32018;59.182;18.148;2023-06-24T01:47:53;1.23;;;1.13;;
46284;SDS011;32018;59.182;18.148;2023-06-24T01:50:19;1.30;;;1.20;;
46284;SDS011;32018;59.182;18.148;2023-06-24T01:52:45;1.17;;;1.13;;
46284;SDS011;32018;59.182;18.148;2023-06-24T01:55:12;0.90;;;0.90;;
46284;SDS011;32018;59.182;18.148;2023-06-24T01:57:40;1.20;;;1.10;;
46284;SDS011;32018;59.182;18.148;2023-06-24T02:00:05;1.05;;;1.05;;
46284;SDS011;32018;59.182;18.148;2023-06-24T02:02:33;1.10;;;1.10;;
46284;SDS011;32018;59.182;18.148;2023-06-24T02:04:59;0.90;;;0.90;;
46284;SDS011;32018;59.182;18.148;2023-06-24T02:07:26;1.25;;;1.15;;
46284;SDS011;32018;59.182;18.148;2023-06-24T02:09:54;0.98;;;0.93;;
46284;SDS011;32018;59.182;18.148;2023-06-24T02:12:20;1.20;;;1.10;;
46284;SDS011;32018;59.182;18.148;2023-06-24T02:14:45;1.23;;;1.13;;
46284;SDS011;32018;59.182;18.148;2023-06-24T02:17:12;1.10;;;1.00;;
46284;SDS011;32018;59.182;18.148;2023-06-24T02:19:38;1.05;;;1.05;;
46284;SDS011;32018;59.182;18.148;2023-06-24T02:22:04;1.23;;;1.13;;
46284;SDS011;32018;59.182;18.148;2023-06-24T02:24:34;1.00;;;1.00;;
46284;SDS011;32018;59.182;18.148;2023-06-24T02:26:59;1.27;;;1.17;;
46284;SDS011;32018;59.182;18.148;2023-06-24T02:29:25;0.90;;;0.90;;
46284;SDS011;32018;59.182;18.148;2023-06-24T02:31:51;1.00;;;1.00;;
46284;SDS011;32018;59.182;18.148;2023-06-24T02:34:17;0.93;;;0.93;;
46284;SDS011;32018;59.182;18.148;2023-06-24T02:36:43;0.95;;;0.95;;
46284;SDS011;32018;59.182;18.148;2023-06-24T02:39:08;1.13;;;1.02;;
46284;SDS011;32018;59.182;18.148;2023-06-24T02:41:33;1.10;;;1.10;;
46284;SDS011;32018;59.182;18.148;2023-06-24T02:43:58;1.50;;;1.10;;
46284;SDS011;32018;59.182;18.148;2023-06-24T02:46:24;1.15;;;1.05;;
46284;SDS011;32018;59.182;18.148;2023-06-24T02:48:50;1.30;;;1.20;;
46284;SDS011;32018;59.182;18.148;2023-06-24T02:51:15;1.20;;;1.10;;
46284;SDS011;32018;59.182;18.148;2023-06-24T02:53:41;0.90;;;0.90;;
46284;SDS011;32018;59.182;18.148;2023-06-24T02:56:07;1.13;;;1.05;;
46284;SDS011;32018;59.182;18.148;2023-06-24T02:58:33;1.00;;;0.90;;
46284;SDS011;32018;59.182;18.148;2023-06-24T03:01:03;1.35;;;1.25;;
46284;SDS011;32018;59.182;18.148;2023-06-24T03:03:28;1.10;;;1.10;;
46284;SDS011;32018;59.182;18.148;2023-06-24T03:05:54;1.10;;;1.00;;
46284;SDS011;32018;59.182;18.148;2023-06-24T03:08:22;1.30;;;1.20;;
46284;SDS011;32018;59.182;18.148;2023-06-24T03:10:47;1.33;;;1.00;;
46284;SDS011;32018;59.182;18.148;2023-06-24T03:13:12;0.90;;;0.90;;
46284;SDS011;32018;59.182;18.148;2023-06-24T03:15:37;1.00;;;1.00;;
46284;SDS011;32018;59.182;18.148;2023-06-24T03:18:03;1.02;;;0.93;;
46284;SDS011;32018;59.182;18.148;2023-06-24T03:20:28;0.95;;;0.95;;
46284;SDS011;32018;59.182;18.148;2023-06-24T03:22:53;0.97;;;0.90;;
46284;SDS011;32018;59.182;18.148;2023-06-24T03:25:21;1.30;;;1.20;;
46284;SDS011;32018;59.182;18.148;2023-06-24T03:27:46;1.10;;;1.10;;
46284;SDS011;32018;59.182;18.148;2023-06-24T03:30:11;0.90;;;0.90;;
46284;SDS011;32018;59.182;18.148;2023-06-24T03:32:39;0.82;;;0.82;;
46284;SDS011;32018;59.182;18.148;2023-06-24T03:35:05;1.20;;;1.10;;
46284;SDS011;32018;59.182;18.148;2023-06-24T03:37:32;0.90;;;0.90;;
46284;SDS011;32018;59.182;18.148;2023-06-24T03:39:57;0.93;;;0.80;;
46284;SDS011;32018;59.182;18.148;2023-06-24T03:42:22;0.77;;;0.77;;
46284;SDS011;32018;59.182;18.148;2023-06-24T03:44:47;0.80;;;0.80;;
46284;SDS011;32018;59.182;18.148;2023-06-24T03:47:12;0.90;;;0.90;;
46284;SDS011;32018;59.182;18.148;2023-06-24T03:49:38;0.90;;;0.90;;
46284;SDS011;32018;59.182;18.148;2023-06-24T03:52:03;0.73;;;0.70;;
46284;SDS011;32018;59.182;18.148;2023-06-24T03:54:30;0.70;;;0.70;;
46284;SDS011;32018;59.182;18.148;2023-06-24T03:56:56;1.07;;;1.07;;
46284;SDS011;32018;59.182;18.148;2023-06-24T03:59:21;0.70;;;0.70;;
46284;SDS011;32018;59.182;18.148;2023-06-24T04:01:46;0.80;;;0.80;;
46284;SDS011;32018;59.182;18.148;2023-06-24T04:04:11;0.70;;;0.70;;
46284;SDS011;32018;59.182;18.148;2023-06-24T04:06:36;0.70;;;0.70;;
46284;SDS011;32018;59.182;18.148;2023-06-24T04:09:02;1.00;;;1.00;;
46284;SDS011;32018;59.182;18.148;2023-06-24T04:11:27;0.50;;;0.50;;
46284;SDS011;32018;59.182;18.148;2023-06-24T04:13:52;0.50;;;0.50;;
46284;SDS011;32018;59.182;18.148;2023-06-24T04:16:17;0.60;;;0.60;;
46284;SDS011;32018;59.182;18.148;2023-06-24T04:18:43;0.65;;;0.65;;
46284;SDS011;32018;59.182;18.148;2023-06-24T04:21:08;0.77;;;0.77;;
46284;SDS011;32018;59.182;18.148;2023-06-24T04:23:33;0.90;;;0.50;;
46284;SDS011;32018;59.182;18.148;2023-06-24T04:25:59;0.93;;;0.47;;
46284;SDS011;32018;59.182;18.148;2023-06-24T04:28:24;0.55;;;0.47;;
46284;SDS011;32018;59.182;18.148;2023-06-24T04:30:49;0.57;;;0.57;;
46284;SDS011;32018;59.182;18.148;2023-06-24T04:33:14;0.88;;;0.60;;
46284;SDS011;32018;59.182;18.148;2023-06-24T04:35:40;0.60;;;0.60;;
46284;SDS011;32018;59.182;18.148;2023-06-24T04:38:05;0.87;;;0.50;;
46284;SDS011;32018;59.182;18.148;2023-06-24T04:40:30;0.60;;;0.60;;
46284;SDS011;32018;59.182;18.148;2023-06-24T04:42:56;0.52;;;0.52;;
46284;SDS011;32018;59.182;18.148;2023-06-24T04:45:21;1.23;;;0.60;;
46284;SDS011;32018;59.182;18.148;2023-06-24T04:47:46;0.50;;;0.50;;
46284;SDS011;32018;59.182;18.148;2023-06-24T04:50:11;0.40;;;0.40;;
46284;SDS011;32018;59.182;18.148;2023-06-24T04:52:37;0.63;;;0.50;;
46284;SDS011;32018;59.182;18.148;2023-06-24T04:55:03;0.85;;;0.50;;
46284;SDS011;32018;59.182;18.148;2023-06-24T04:57:31;0.85;;;0.52;;
46284;SDS011;32018;59.182;18.148;2023-06-24T04:59:57;0.43;;;0.43;;
46284;SDS011;32018;59.182;18.148;2023-06-24T05:02:22;1.48;;;0.63;;
46284;SDS011;32018;59.182;18.148;2023-06-24T05:04:47;1.30;;;0.75;;
46284;SDS011;32018;59.182;18.148;2023-06-24T05:07:13;1.00;;;0.60;;
46284;SDS011;32018;59.182;18.148;2023-06-24T05:09:38;0.50;;;0.50;;
46284;SDS011;32018;59.182;18.148;2023-06-24T05:12:04;1.00;;;0.60;;
46284;SDS011;32018;59.182;18.148;2023-06-24T05:14:29;1.02;;;0.70;;
46284;SDS011;32018;59.182;18.148;2023-06-24T05:16:55;0.50;;;0.50;;
46284;SDS011;32018;59.182;18.148;2023-06-24T05:19:20;0.80;;;0.50;;
46284;SDS011;32018;59.182;18.148;2023-06-24T05:21:45;0.55;;;0.40;;
46284;SDS011;32018;59.182;18.148;2023-06-24T05:24:10;0.88;;;0.40;;
46284;SDS011;32018;59.182;18.148;2023-06-24T05:26:35;0.63;;;0.50;;
46284;SDS011;32018;59.182;18.148;2023-06-24T05:29:01;0.50;;;0.50;;
46284;SDS011;32018;59.182;18.148;2023-06-24T05:31:26;0.50;;;0.50;;
46284;SDS011;32018;59.182;18.148;2023-06-24T05:33:51;0.93;;;0.60;;
46284;SDS011;32018;59.182;18.148;2023-06-24T05:36:16;0.67;;;0.40;;
46284;SDS011;32018;59.182;18.148;2023-06-24T05:38:42;0.50;;;0.50;;
46284;SDS011;32018;59.182;18.148;2023-06-24T05:41:07;1.10;;;0.50;;
46284;SDS011;32018;59.182;18.148;2023-06-24T05:43:32;0.50;;;0.50;;
46284;SDS011;32018;59.182;18.148;2023-06-24T05:45:57;0.53;;;0.40;;
46284;SDS011;32018;59.182;18.148;2023-06-24T05:48:22;0.40;;;0.40;;
46284;SDS011;32018;59.182;18.148;2023-06-24T05:50:48;0.57;;;0.40;;
46284;SDS011;32018;59.182;18.148;2023-06-24T05:53:13;0.77;;;0.60;;
46284;SDS011;32018;59.182;18.148;2023-06-24T05:55:38;1.30;;;0.40;;
46284;SDS011;32018;59.182;18.148;2023-06-24T05:58:03;0.73;;;0.50;;
46284;SDS011;32018;59.182;18.148;2023-06-24T06:00:28;0.50;;;0.30;;
46284;SDS011;32018;59.182;18.148;2023-06-24T06:02:54;0.87;;;0.43;;
46284;SDS011;32018;59.182;18.148;2023-06-24T06:05:19;1.10;;;0.40;;
46284;SDS011;32018;59.182;18.148;2023-06-24T06:07:44;0.50;;;0.40;;
46284;SDS011;32018;59.182;18.148;2023-06-24T06:10:10;2.27;;;0.57;;
46284;SDS011;32018;59.182;18.148;2023-06-24T06:12:35;0.60;;;0.40;;
46284;SDS011;32018;59.182;18.148;2023-06-24T06:15:01;0.40;;;0.30;;
46284;SDS011;32018;59.182;18.148;2023-06-24T06:17:26;0.40;;;0.40;;
46284;SDS011;32018;59.182;18.148;2023-06-24T06:19:51;0.40;;;0.40;;
46284;SDS011;32018;59.182;18.148;2023-06-24T06:22:16;0.57;;;0.57;;
46284;SDS011;32018;59.182;18.148;2023-06-24T06:24:43;1.42;;;0.50;;
46284;SDS011;32018;59.182;18.148;2023-06-24T06:27:11;0.60;;;0.60;;
46284;SDS011;32018;59.182;18.148;2023-06-24T06:29:37;0.77;;;0.60;;
46284;SDS011;32018;59.182;18.148;2023-06-24T06:32:03;0.40;;;0.40;;
46284;SDS011;32018;59.182;18.148;2023-06-24T06:34:28;0.30;;;0.30;;
46284;SDS011;32018;59.182;18.148;2023-06-24T06:36:53;0.77;;;0.60;;
46284;SDS011;32018;59.182;18.148;2023-06-24T06:39:19;0.65;;;0.50;;
46284;SDS011;32018;59.182;18.148;2023-06-24T06:41:44;1.27;;;0.50;;
46284;SDS011;32018;59.182;18.148;2023-06-24T06:44:09;0.40;;;0.40;;
46284;SDS011;32018;59.182;18.148;2023-06-24T06:46:34;0.47;;;0.47;;
46284;SDS011;32018;59.182;18.148;2023-06-24T06:48:59;0.40;;;0.40;;
46284;SDS011;32018;59.182;18.148;2023-06-24T06:51:25;0.47;;;0.30;;
46284;SDS011;32018;59.182;18.148;2023-06-24T06:53:50;1.00;;;0.50;;
46284;SDS011;32018;59.182;18.148;2023-06-24T06:56:16;0.50;;;0.50;;
46284;SDS011;32018;59.182;18.148;2023-06-24T06:58:41;0.43;;;0.40;;
46284;SDS011;32018;59.182;18.148;2023-06-24T07:01:07;0.30;;;0.30;;
46284;SDS011;32018;59.182;18.148;2023-06-24T07:03:32;0.93;;;0.50;;
46284;SDS011;32018;59.182;18.148;2023-06-24T07:05:57;0.73;;;0.50;;
46284;SDS011;32018;59.182;18.148;2023-06-24T07:08:22;0.63;;;0.50;;
46284;SDS011;32018;59.182;18.148;2023-06-24T07:10:47;0.90;;;0.50;;
46284;SDS011;32018;59.182;18.148;2023-06-24T07:13:13;0.87;;;0.43;;
46284;SDS011;32018;59.182;18.148;2023-06-24T07:15:38;0.65;;;0.38;;
46284;SDS011;32018;59.182;18.148;2023-06-24T07:18:03;0.40;;;0.40;;
46284;SDS011;32018;59.182;18.148;2023-06-24T07:20:28;0.43;;;0.40;;
46284;SDS011;32018;59.182;18.148;2023-06-24T07:22:54;0.60;;;0.40;;
46284;SDS011;32018;59.182;18.148;2023-06-24T07:25:19;1.20;;;0.50;;
46284;SDS011;32018;59.182;18.148;2023-06-24T07:27:44;0.80;;;0.60;;
46284;SDS011;32018;59.182;18.148;2023-06-24T07:30:09;0.60;;;0.50;;
46284;SDS011;32018;59.182;18.148;2023-06-24T07:32:35;0.50;;;0.50;;
46284;SDS011;32018;59.182;18.148;2023-06-24T07:35:00;0.60;;;0.40;;
46284;SDS011;32018;59.182;18.148;2023-06-24T07:37:25;0.87;;;0.40;;
46284;SDS011;32018;59.182;18.148;2023-06-24T07:39:51;1.27;;;0.50;;
46284;SDS011;32018;59.182;18.148;2023-06-24T07:42:16;1.08;;;0.60;;
46284;SDS011;32018;59.182;18.148;2023-06-24T07:44:47;0.43;;;0.43;;
46284;SDS011;32018;59.182;18.148;2023-06-24T07:47:12;0.57;;;0.57;;
46284;SDS011;32018;59.182;18.148;2023-06-24T07:49:37;0.60;;;0.55;;
46284;SDS011;32018;59.182;18.148;2023-06-24T07:52:03;2.17;;;0.47;;
46284;SDS011;32018;59.182;18.148;2023-06-24T07:54:29;0.43;;;0.30;;
46284;SDS011;32018;59.182;18.148;2023-06-24T07:56:54;0.73;;;0.50;;
46284;SDS011;32018;59.182;18.148;2023-06-24T07:59:20;0.40;;;0.40;;
46284;SDS011;32018;59.182;18.148;2023-06-24T08:01:45;1.27;;;0.50;;
46284;SDS011;32018;59.182;18.148;2023-06-24T08:04:10;0.68;;;0.50;;
46284;SDS011;32018;59.182;18.148;2023-06-24T08:06:35;0.37;;;0.37;;
46284;SDS011;32018;59.182;18.148;2023-06-24T08:09:01;0.45;;;0.38;;
46284;SDS011;32018;59.182;18.148;2023-06-24T08:11:26;0.40;;;0.40;;
46284;SDS011;32018;59.182;18.148;2023-06-24T08:13:51;0.50;;;0.50;;
46284;SDS011;32018;59.182;18.148;2023-06-24T08:16:17;0.40;;;0.40;;
46284;SDS011;32018;59.182;18.148;2023-06-24T08:18:42;0.40;;;0.40;;
46284;SDS011;32018;59.182;18.148;2023-06-24T08:21:07;0.85;;;0.40;;
46284;SDS011;32018;59.182;18.148;2023-06-24T08:23:33;0.52;;;0.47;;
46284;SDS011;32018;59.182;18.148;2023-06-24T08:25:58;0.40;;;0.40;;
46284;SDS011;32018;59.182;18.148;2023-06-24T08:28:23;1.03;;;0.47;;
46284;SDS011;32018;59.182;18.148;2023-06-24T08:30:48;0.53;;;0.50;;
46284;SDS011;32018;59.182;18.148;2023-06-24T08:33:13;0.40;;;0.30;;
46284;SDS011;32018;59.182;18.148;2023-06-24T08:35:39;0.60;;;0.50;;
46284;SDS011;32018;59.182;18.148;2023-06-24T08:38:04;0.87;;;0.30;;
46284;SDS011;32018;59.182;18.148;2023-06-24T08:40:29;0.30;;;0.30;;
46284;SDS011;32018;59.182;18.148;2023-06-24T08:42:54;0.40;;;0.40;;
46284;SDS011;32018;59.182;18.148;2023-06-24T08:45:20;0.65;;;0.45;;
46284;SDS011;32018;59.182;18.148;2023-06-24T08:47:45;0.40;;;0.40;;
46284;SDS011;32018;59.182;18.148;2023-06-24T08:50:12;0.32;;;0.32;;
46284;SDS011;32018;59.182;18.148;2023-06-24T08:52:38;0.40;;;0.40;;
46284;SDS011;32018;59.182;18.148;2023-06-24T08:55:07;0.82;;;0.40;;
46284;SDS011;32018;59.182;18.148;2023-06-24T08:57:35;1.17;;;0.43;;
46284;SDS011;32018;59.182;18.148;2023-06-24T09:00:01;0.85;;;0.50;;
46284;SDS011;32018;59.182;18.148;2023-06-24T09:02:26;0.70;;;0.60;;
46284;SDS011;32018;59.182;18.148;2023-06-24T09:04:52;0.50;;;0.50;;
46284;SDS011;32018;59.182;18.148;2023-06-24T09:07:27;0.47;;;0.40;;
46284;SDS011;32018;59.182;18.148;2023-06-24T09:09:55;0.50;;;0.45;;
46284;SDS011;32018;59.182;18.148;2023-06-24T09:12:21;0.75;;;0.60;;
46284;SDS011;32018;59.182;18.148;2023-06-24T09:14:50;0.43;;;0.32;;
46284;SDS011;32018;59.182;18.148;2023-06-24T09:17:15;0.60;;;0.50;;
46284;SDS011;32018;59.182;18.148;2023-06-24T09:19:41;0.57;;;0.40;;
46284;SDS011;32018;59.182;18.148;2023-06-24T09:22:07;0.65;;;0.50;;
46284;SDS011;32018;59.182;18.148;2023-06-24T09:24:33;0.40;;;0.40;;
46284;SDS011;32018;59.182;18.148;2023-06-24T09:26:58;2.88;;;0.50;;
46284;SDS011;32018;59.182;18.148;2023-06-24T09:29:26;2.17;;;0.60;;
46284;SDS011;32018;59.182;18.148;2023-06-24T09:31:52;0.40;;;0.40;;
46284;SDS011;32018;59.182;18.148;2023-06-24T09:34:18;0.77;;;0.47;;
46284;SDS011;32018;59.182;18.148;2023-06-24T09:36:44;0.50;;;0.50;;
46284;SDS011;32018;59.182;18.148;2023-06-24T09:39:12;0.60;;;0.40;;
46284;SDS011;32018;59.182;18.148;2023-06-24T09:41:41;1.00;;;0.50;;
46284;SDS011;32018;59.182;18.148;2023-06-24T09:44:13;0.40;;;0.40;;
46284;SDS011;32018;59.182;18.148;2023-06-24T09:46:38;0.55;;;0.38;;
46284;SDS011;32018;59.182;18.148;2023-06-24T09:49:04;0.80;;;0.80;;
46284;SDS011;32018;59.182;18.148;2023-06-24T09:51:29;1.38;;;0.65;;
46284;SDS011;32018;59.182;18.148;2023-06-24T09:53:57;0.40;;;0.40;;
46284;SDS011;32018;59.182;18.148;2023-06-24T09:56:22;0.40;;;0.40;;
46284;SDS011;32018;59.182;18.148;2023-06-24T09:58:48;0.82;;;0.60;;
46284;SDS011;32018;59.182;18.148;2023-06-24T10:01:13;0.47;;;0.47;;
46284;SDS011;32018;59.182;18.148;2023-06-24T10:03:38;0.88;;;0.50;;
46284;SDS011;32018;59.182;18.148;2023-06-24T10:06:04;0.60;;;0.60;;
46284;SDS011;32018;59.182;18.148;2023-06-24T10:08:30;0.75;;;0.75;;
46284;SDS011;32018;59.182;18.148;2023-06-24T10:10:55;0.82;;;0.50;;
46284;SDS011;32018;59.182;18.148;2023-06-24T10:13:21;0.75;;;0.68;;
46284;SDS011;32018;59.182;18.148;2023-06-24T10:15:46;0.60;;;0.60;;
46284;SDS011;32018;59.182;18.148;2023-06-24T10:20:55;0.98;;;0.88;;
46284;SDS011;32018;59.182;18.148;2023-06-24T10:23:20;0.50;;;0.50;;
46284;SDS011;32018;59.182;18.148;2023-06-24T10:25:46;0.60;;;0.60;;
46284;SDS011;32018;59.182;18.148;2023-06-24T10:28:12;0.50;;;0.50;;
46284;SDS011;32018;59.182;18.148;2023-06-24T10:30:37;0.70;;;0.70;;
46284;SDS011;32018;59.182;18.148;2023-06-24T10:33:02;0.70;;;0.70;;
46284;SDS011;32018;59.182;18.148;2023-06-24T10:35:28;0.57;;;0.53;;
46284;SDS011;32018;59.182;18.148;2023-06-24T10:37:57;0.52;;;0.40;;
46284;SDS011;32018;59.182;18.148;2023-06-24T10:40:36;0.55;;;0.45;;
46284;SDS011;32018;59.182;18.148;2023-06-24T10:43:04;0.70;;;0.70;;
46284;SDS011;32018;59.182;18.148;2023-06-24T10:45:51;1.20;;;0.82;;
46284;SDS011;32018;59.182;18.148;2023-06-24T10:48:17;0.73;;;0.63;;
46284;SDS011;32018;59.182;18.148;2023-06-24T10:50:44;1.00;;;0.90;;
46284;SDS011;32018;59.182;18.148;2023-06-24T10:53:09;1.08;;;0.70;;
46284;SDS011;32018;59.182;18.148;2023-06-24T10:55:35;0.50;;;0.50;;
46284;SDS011;32018;59.182;18.148;2023-06-24T10:58:10;0.50;;;0.50;;
46284;SDS011;32018;59.182;18.148;2023-06-24T11:00:37;0.82;;;0.50;;
46284;SDS011;32018;59.182;18.148;2023-06-24T11:03:20;0.63;;;0.47;;
46284;SDS011;32018;59.182;18.148;2023-06-24T11:05:48;1.00;;;0.70;;
46284;SDS011;32018;59.182;18.148;2023-06-24T11:08:13;0.73;;;0.70;;
46284;SDS011;32018;59.182;18.148;2023-06-24T11:10:45;1.15;;;0.60;;
46284;SDS011;32018;59.182;18.148;2023-06-24T11:13:10;1.48;;;0.60;;
46284;SDS011;32018;59.182;18.148;2023-06-24T11:15:35;0.77;;;0.50;;
46284;SDS011;32018;59.182;18.148;2023-06-24T11:18:04;0.73;;;0.73;;
46284;SDS011;32018;59.182;18.148;2023-06-24T11:20:29;0.50;;;0.50;;
46284;SDS011;32018;59.182;18.148;2023-06-24T11:22:54;0.73;;;0.50;;
46284;SDS011;32018;59.182;18.148;2023-06-24T11:25:20;0.75;;;0.50;;
46284;SDS011;32018;59.182;18.148;2023-06-24T11:27:51;0.68;;;0.60;;
46284;SDS011;32018;59.182;18.148;2023-06-24T11:30:19;1.50;;;0.80;;
46284;SDS011;32018;59.182;18.148;2023-06-24T11:32:45;0.82;;;0.82;;
46284;SDS011;32018;59.182;18.148;2023-06-24T11:35:11;0.50;;;0.50;;
46284;SDS011;32018;59.182;18.148;2023-06-24T11:37:36;0.70;;;0.52;;
46284;SDS011;32018;59.182;18.148;2023-06-24T11:42:29;0.65;;;0.60;;
46284;SDS011;32018;59.182;18.148;2023-06-24T11:44:58;2.88;;;0.85;;
46284;SDS011;32018;59.182;18.148;2023-06-24T11:47:24;0.50;;;0.50;;
46284;SDS011;32018;59.182;18.148;2023-06-24T11:49:52;0.93;;;0.60;;
46284;SDS011;32018;59.182;18.148;2023-06-24T11:52:27;0.80;;;0.80;;
46284;SDS011;32018;59.182;18.148;2023-06-24T11:54:52;0.47;;;0.47;;
46284;SDS011;32018;59.182;18.148;2023-06-24T11:57:17;1.23;;;0.50;;
46284;SDS011;32018;59.182;18.148;2023-06-24T11:59:42;1.15;;;0.73;;
46284;SDS011;32018;59.182;18.148;2023-06-24T12:02:12;0.50;;;0.50;;
46284;SDS011;32018;59.182;18.148;2023-06-24T12:04:38;0.82;;;0.77;;
46284;SDS011;32018;59.182;18.148;2023-06-24T12:07:05;0.50;;;0.50;;
46284;SDS011;32018;59.182;18.148;2023-06-24T12:09:30;1.57;;;0.63;;
46284;SDS011;32018;59.182;18.148;2023-06-24T12:11:56;0.55;;;0.55;;
46284;SDS011;32018;59.182;18.148;2023-06-24T12:14:21;0.60;;;0.50;;
46284;SDS011;32018;59.182;18.148;2023-06-24T12:16:46;0.50;;;0.50;;
46284;SDS011;32018;59.182;18.148;2023-06-24T12:19:12;0.67;;;0.50;;
46284;SDS011;32018;59.182;18.148;2023-06-24T12:21:37;6.00;;;0.67;;
46284;SDS011;32018;59.182;18.148;2023-06-24T12:24:03;1.33;;;0.70;;
46284;SDS011;32018;59.182;18.148;2023-06-24T12:26:28;0.50;;;0.50;;
46284;SDS011;32018;59.182;18.148;2023-06-24T12:28:54;1.38;;;0.60;;
46284;SDS011;32018;59.182;18.148;2023-06-24T12:31:20;0.60;;;0.60;;
46284;SDS011;32018;59.182;18.148;2023-06-24T12:33:45;0.88;;;0.60;;
46284;SDS011;32018;59.182;18.148;2023-06-24T12:36:11;1.47;;;0.60;;
46284;SDS011;32018;59.182;18.148;2023-06-24T12:38:36;0.50;;;0.50;;
46284;SDS011;32018;59.182;18.148;2023-06-24T12:41:01;0.77;;;0.63;;
46284;SDS011;32018;59.182;18.148;2023-06-24T12:43:27;0.70;;;0.70;;
46284;SDS011;32018;59.182;18.148;2023-06-24T12:45:52;1.05;;;0.68;;
46284;SDS011;32018;59.182;18.148;2023-06-24T12:48:17;0.50;;;0.50;;
46284;SDS011;32018;59.182;18.148;2023-06-24T12:50:42;1.10;;;0.85;;
46284;SDS011;32018;59.182;18.148;2023-06-24T12:53:08;0.90;;;0.50;;
46284;SDS011;32018;59.182;18.148;2023-06-24T12:55:35;1.02;;;0.50;;
46284;SDS011;32018;59.182;18.148;2023-06-24T12:58:00;0.60;;;0.60;;
46284;SDS011;32018;59.182;18.148;2023-06-24T13:00:26;0.70;;;0.70;;
46284;SDS011;32018;59.182;18.148;2023-06-24T13:02:51;0.60;;;0.47;;
46284;SDS011;32018;59.182;18.148;2023-06-24T13:05:17;0.65;;;0.60;;
46284;SDS011;32018;59.182;18.148;2023-06-24T13:07:43;1.65;;;0.70;;
46284;SDS011;32018;59.182;18.148;2023-06-24T13:10:08;0.50;;;0.50;;
46284;SDS011;32018;59.182;18.148;2023-06-24T13:12:34;0.57;;;0.57;;
46284;SDS011;32018;59.182;18.148;2023-06-24T13:14:59;0.82;;;0.82;;
46284;SDS011;32018;59.182;18.148;2023-06-24T13:17:25;0.77;;;0.63;;
46284;SDS011;32018;59.182;18.148;2023-06-24T13:19:50;0.75;;;0.50;;
46284;SDS011;32018;59.182;18.148;2023-06-24T13:22:15;0.70;;;0.70;;
46284;SDS011;32018;59.182;18.148;2023-06-24T13:24:41;1.00;;;0.75;;
46284;SDS011;32018;59.182;18.148;2023-06-24T13:27:06;8.73;;;1.33;;
46284;SDS011;32018;59.182;18.148;2023-06-24T13:29:31;1.20;;;0.70;;
46284;SDS011;32018;59.182;18.148;2023-06-24T13:31:57;1.25;;;0.70;;
46284;SDS011;32018;59.182;18.148;2023-06-24T13:34:22;1.93;;;0.57;;
46284;SDS011;32018;59.182;18.148;2023-06-24T13:36:47;0.77;;;0.70;;
46284;SDS011;32018;59.182;18.148;2023-06-24T13:39:12;0.73;;;0.65;;
46284;SDS011;32018;59.182;18.148;2023-06-24T13:41:38;0.65;;;0.65;;
46284;SDS011;32018;59.182;18.148;2023-06-24T13:44:04;0.50;;;0.50;;
46284;SDS011;32018;59.182;18.148;2023-06-24T13:46:29;0.60;;;0.60;;
46284;SDS011;32018;59.182;18.148;2023-06-24T13:48:55;0.82;;;0.60;;
46284;SDS011;32018;59.182;18.148;2023-06-24T13:51:21;0.70;;;0.60;;
46284;SDS011;32018;59.182;18.148;2023-06-24T13:53:50;0.82;;;0.65;;
46284;SDS011;32018;59.182;18.148;2023-06-24T13:56:16;0.50;;;0.50;;
46284;SDS011;32018;59.182;18.148;2023-06-24T13:58:41;1.42;;;0.60;;
46284;SDS011;32018;59.182;18.148;2023-06-24T14:01:07;0.50;;;0.50;;
46284;SDS011;32018;59.182;18.148;2023-06-24T14:03:32;0.57;;;0.52;;
46284;SDS011;32018;59.182;18.148;2023-06-24T14:05:57;0.60;;;0.60;;
46284;SDS011;32018;59.182;18.148;2023-06-24T14:08:23;0.55;;;0.55;;
46284;SDS011;32018;59.182;18.148;2023-06-24T14:10:48;1.37;;;0.70;;
46284;SDS011;32018;59.182;18.148;2023-06-24T14:13:13;0.90;;;0.68;;
46284;SDS011;32018;59.182;18.148;2023-06-24T14:15:39;0.70;;;0.70;;
46284;SDS011;32018;59.182;18.148;2023-06-24T14:18:05;0.90;;;0.80;;
46284;SDS011;32018;59.182;18.148;2023-06-24T14:20:30;0.97;;;0.57;;
46284;SDS011;32018;59.182;18.148;2023-06-24T14:22:55;1.40;;;0.57;;
46284;SDS011;32018;59.182;18.148;2023-06-24T14:25:20;0.60;;;0.60;;
46284;SDS011;32018;59.182;18.148;2023-06-24T14:27:46;0.60;;;0.60;;
46284;SDS011;32018;59.182;18.148;2023-06-24T14:30:11;0.60;;;0.57;;
46284;SDS011;32018;59.182;18.148;2023-06-24T14:32:37;0.77;;;0.70;;
46284;SDS011;32018;59.182;18.148;2023-06-24T14:35:02;0.68;;;0.68;;
46284;SDS011;32018;59.182;18.148;2023-06-24T14:37:28;0.68;;;0.60;;
46284;SDS011;32018;59.182;18.148;2023-06-24T14:39:53;3.03;;;0.60;;
46284;SDS011;32018;59.182;18.148;2023-06-24T14:42:18;0.50;;;0.50;;